罗盘
风向 的 风向 的 风向 到 风向 330° Cagliari Elmas Airport 14/32
风: 11 kt, 4 beaufort

11 kt

2 kt
改变
0 1.000 2.000 3.000 4.000 5.000
SCT 3.000 ft
METAR LIEE 301450Z 33011KT 290V360 9999 SCT030 26/16 Q1009

METAR Cagliari Elmas Airport - LIEE/CAG

Cagliari Elmas Airport是Cagliari,意大利中的大型机场。 该机场有一条跑道: 14/32. 该领域的国际民航组织标志是LIEE 它的国际航空运输协会代码是CAG.

这份报告是针对2022年9月30日 16:50, 当地时间在Cagliari Elmas Airport进行的。

机场观察

风向为330°,速度为11 kt。 风向在290°和360°之间变化。

可见度为10 km 或者更多。

有疏云,零星散落的云朵在3.000 ft的高度。 没有观察到天花板。

温度和风寒是26 °C。 露点为16 °C,相对湿度为54%。 海平面上的气压为1009 hPa (QNH)。

白天

今天,太阳从07:18升起,在19:08降落。 这适用于Cagliari Elmas Airport,世界夏令时可能有所不同。 当地时间与世界标准时间之间的时差为+2 小时。 夏令时目前正在进行中。

公司介绍

我们没有关于这个机场的公司信息。

体会

到Vliegles.nl去找飞行课程,跳伞和其他飞行体验。 浏览页面,了解Cagliari Elmas Airport附近所有可用的活动。 你也可以使用搜索功能来寻找你所在地附近的特定飞行课程、跳伞或其他飞行体验。

跑道

Id 标题 侧风 逆风 侧风 %
14/32 138°-318° 2 kt 11 kt 21 %

逆风成分最大的方向会被突出显示,并用于横风计算。 这并不一定意味着这个方向在使用。

乌云

3.000 ft SCT 疏云,零星散落的云朵

温度 & 天气

温度 26 °C
露点 16 °C
相对湿度 54%
Kp-index 1 (0-9)

白天

日出
07:18
中午
13:13
日落
19:08 (1h 46m)

小工具

你想在你的网站上有一个关于Cagliari Elmas Airport的当前航空天气(METAR)的小部件吗?

</> 显示HTML代码

我们和第三方通过cookies跟踪您在我们网站上的上网行为。如果您继续,我们认为您同意我们的cookie政策。 了解更多